Time;durP1;ratioP1;P1;durP2;ratioP2;P2;SDS_P1;SDS_P2;PMS_P1;PMS_P2;Temp;Humidity;BMP_temperature;BMP_pressure;BME280_temperature;BME280_humidity;BME280_pressure;Samples;Min_cycle;Max_cycle;Signal;HPM_P1;HPM_P2
2023/07/20 00:00:06;;;;;;;5.95;4.97;;;;;;;15.61;83.75;101171.09;5094469;28;20028;-80
2023/07/20 00:02:31;;;;;;;6.95;4.82;;;;;;;15.59;83.72;101164.25;5081339;28;20032;-81
2023/07/20 00:04:57;;;;;;;5.18;4.68;;;;;;;15.53;84.15;101170.56;5091867;28;20035;-80
2023/07/20 00:07:25;;;;;;;6.75;4.70;;;;;;;15.47;84.44;101169.56;5090734;28;20043;-83
2023/07/20 00:09:50;;;;;;;8.00;5.38;;;;;;;15.44;84.31;101170.81;5089532;28;20096;-81
2023/07/20 00:12:16;;;;;;;5.97;5.15;;;;;;;15.43;84.33;101166.47;5093460;28;20448;-81
2023/07/20 00:14:41;;;;;;;7.05;4.85;;;;;;;15.40;84.89;101176.91;5091077;28;20028;-81
2023/07/20 00:17:06;;;;;;;7.20;4.60;;;;;;;15.39;84.75;101170.66;5079365;28;20502;-81
2023/07/20 00:19:32;;;;;;;6.80;5.10;;;;;;;15.35;85.24;101168.63;5091733;28;20032;-81
2023/07/20 00:21:57;;;;;;;5.05;4.57;;;;;;;15.37;84.99;101174.63;5092329;28;20039;-81
2023/07/20 00:24:23;;;;;;;8.82;4.88;;;;;;;15.35;85.16;101171.34;5090608;28;20399;-81
2023/07/20 00:26:48;;;;;;;6.00;5.43;;;;;;;15.31;85.50;101179.06;5094680;28;20537;-81
2023/07/20 00:29:14;;;;;;;5.40;4.90;;;;;;;15.40;85.32;101171.50;5091027;28;20070;-80
2023/07/20 00:31:39;;;;;;;7.10;5.25;;;;;;;15.39;85.05;101165.25;5088355;28;20036;-81
2023/07/20 00:34:05;;;;;;;6.30;4.88;;;;;;;15.43;85.30;101173.75;5072065;28;20040;-81
2023/07/20 00:36:30;;;;;;;5.65;5.05;;;;;;;15.42;85.25;101167.53;5085995;28;20032;-81
2023/07/20 00:38:58;;;;;;;5.32;4.82;;;;;;;15.48;84.58;101173.94;5079163;28;20028;-81
2023/07/20 00:41:24;;;;;;;7.35;5.30;;;;;;;15.47;84.86;101169.56;5089029;28;20032;-81
2023/07/20 00:43:50;;;;;;;7.63;5.57;;;;;;;15.40;84.74;101175.03;5095162;28;20074;-81
2023/07/20 00:46:16;;;;;;;7.95;5.63;;;;;;;15.42;84.16;101177.53;5086107;28;20519;-82
2023/07/20 00:48:44;;;;;;;6.50;5.78;;;;;;;15.42;84.13;101178.38;5080838;28;20028;-81
2023/07/20 00:51:09;;;;;;;6.88;5.50;;;;;;;15.40;84.10;101172.34;5077101;28;20030;-80
2023/07/20 00:53:34;;;;;;;6.22;5.63;;;;;;;15.29;84.57;101168.44;5056604;28;20028;-81
2023/07/20 00:56:08;;;;;;;6.63;5.70;;;;;;;15.22;85.15;101174.97;5090455;28;20040;-81
2023/07/20 00:58:34;;;;;;;6.32;5.72;;;;;;;15.23;85.06;101177.47;5058566;28;20016;-81
2023/07/20 01:00:59;;;;;;;8.55;5.82;;;;;;;15.19;85.46;101176.22;5075326;28;20952;-81
2023/07/20 01:03:25;;;;;;;8.10;5.43;;;;;;;15.17;85.48;101178.34;5091682;28;20024;-81
2023/07/20 01:06:10;;;;;;;5.82;5.20;;;;;;;15.18;85.75;101174.56;5087622;28;20540;-81
2023/07/20 01:08:56;;;;;;;7.68;5.53;;;;;;;15.16;86.03;101179.41;5100646;28;20035;-81
2023/07/20 01:11:33;;;;;;;6.10;5.50;;;;;;;15.12;86.20;101186.31;5087081;28;20029;-81
2023/07/20 01:13:59;;;;;;;6.65;5.78;;;;;;;15.08;86.79;101185.94;5087807;28;20092;-81
2023/07/20 01:16:25;;;;;;;7.30;5.60;;;;;;;15.05;87.18;101180.94;5072879;28;20039;-82
2023/07/20 01:18:51;;;;;;;9.07;5.93;;;;;;;15.05;87.45;101185.50;5089196;28;20549;-82
2023/07/20 01:21:21;;;;;;;6.85;5.78;;;;;;;15.07;87.53;101188.84;5078653;28;20025;-82
2023/07/20 01:23:55;;;;;;;7.55;5.97;;;;;;;15.08;87.85;101187.78;5093437;28;20027;-82
2023/07/20 01:26:47;;;;;;;7.47;5.75;;;;;;;15.15;87.49;101196.72;5073568;28;20028;-81
2023/07/20 01:29:38;;;;;;;6.57;5.63;;;;;;;15.11;87.59;101187.34;5052850;28;20103;-81
2023/07/20 01:32:06;;;;;;;8.05;5.90;;;;;;;15.11;87.23;101190.88;5078864;28;20039;-81
2023/07/20 01:34:32;;;;;;;8.15;6.25;;;;;;;15.06;87.24;101181.75;5072123;28;20413;-81
2023/07/20 01:36:57;;;;;;;6.78;6.07;;;;;;;15.01;87.04;101177.81;5068572;28;20035;-81
2023/07/20 01:39:23;;;;;;;6.00;5.43;;;;;;;14.98;86.83;101194.53;5066819;28;20032;-81
2023/07/20 01:41:48;;;;;;;6.57;5.97;;;;;;;14.96;87.12;101195.78;5064231;28;20103;-81
2023/07/20 01:44:13;;;;;;;6.95;6.30;;;;;;;14.93;87.25;101205.19;5055040;28;20035;-82
2023/07/20 01:46:39;;;;;;;6.88;6.18;;;;;;;14.96;87.28;101193.06;5077924;28;20035;-81
2023/07/20 01:49:04;;;;;;;6.65;6.05;;;;;;;14.97;86.79;101190.16;5092128;28;20022;-82
2023/07/20 01:51:30;;;;;;;6.63;6.03;;;;;;;14.96;86.72;101193.91;5090114;22;20143;-81
2023/07/20 01:53:55;;;;;;;7.45;6.50;;;;;;;14.96;86.52;101199.34;5013019;28;20029;-82
2023/07/20 01:56:20;;;;;;;7.50;6.35;;;;;;;14.92;88.23;101198.09;5014382;28;20626;-81
2023/07/20 01:58:46;;;;;;;8.10;6.00;;;;;;;14.92;88.45;101199.97;5018974;28;20043;-81
2023/07/20 02:01:11;;;;;;;7.10;6.40;;;;;;;14.85;88.84;101197.31;5014284;28;20030;-81
2023/07/20 02:03:37;;;;;;;7.68;6.90;;;;;;;14.77;89.11;101190.25;5011880;28;20032;-81
2023/07/20 02:06:02;;;;;;;7.18;6.47;;;;;;;14.73;89.86;101191.75;5010536;28;20444;-81
2023/07/20 02:08:27;;;;;;;7.32;6.63;;;;;;;14.74;90.49;101187.16;5017408;28;20025;-82
2023/07/20 02:10:53;;;;;;;7.45;6.65;;;;;;;14.75;90.50;101189.63;5013752;28;20046;-81
2023/07/20 02:13:18;;;;;;;7.20;6.50;;;;;;;14.75;89.90;101191.53;5004070;28;20025;-81
2023/07/20 02:15:44;;;;;;;6.82;6.22;;;;;;;14.74;90.21;101184.44;5011025;28;20018;-81
2023/07/20 02:18:09;;;;;;;7.40;6.70;;;;;;;14.73;90.28;101199.03;5014277;28;20037;-79
2023/07/20 02:20:35;;;;;;;7.38;6.65;;;;;;;14.70;90.81;101194.91;5017519;28;20374;-80
2023/07/20 02:23:03;;;;;;;7.80;7.10;;;;;;;14.68;91.43;101194.28;5017375;28;20037;-80
2023/07/20 02:25:29;;;;;;;7.97;7.18;;;;;;;14.63;91.38;101204.91;5013094;28;20113;-83
2023/07/20 02:27:56;;;;;;;7.43;6.72;;;;;;;14.59;91.44;101200.94;5014882;28;20404;-84
2023/07/20 02:30:21;;;;;;;7.80;7.00;;;;;;;14.55;91.32;101205.97;5015339;28;20485;-81
2023/07/20 02:32:48;;;;;;;8.10;7.30;;;;;;;14.51;92.05;101200.16;5021923;28;20021;-80
2023/07/20 02:35:16;;;;;;;10.07;7.57;;;;;;;14.46;92.50;101201.84;5011645;28;20474;-81
2023/07/20 02:37:42;;;;;;;8.15;7.35;;;;;;;14.44;93.01;101207.47;5018049;28;20022;-81
2023/07/20 02:40:08;;;;;;;7.78;6.97;;;;;;;14.44;92.75;101201.22;5009139;28;20037;-80
2023/07/20 02:42:34;;;;;;;7.85;7.07;;;;;;;14.42;91.96;101203.31;5009481;28;20033;-81
2023/07/20 02:44:59;;;;;;;8.13;7.32;;;;;;;14.34;92.15;101205.22;5013521;28;20025;-81
2023/07/20 02:47:25;;;;;;;7.68;6.97;;;;;;;14.28;92.66;101200.66;5013730;28;20022;-81
2023/07/20 02:49:50;;;;;;;7.78;7.00;;;;;;;14.23;92.55;101198.56;5016121;28;20042;-81
2023/07/20 02:52:16;;;;;;;7.30;6.60;;;;;;;14.19;92.25;101199.22;5033694;28;20034;-81
2023/07/20 02:54:41;;;;;;;7.47;6.78;;;;;;;14.16;92.40;101205.91;5032669;28;20032;-81
2023/07/20 02:57:07;;;;;;;6.60;6.03;;;;;;;14.11;92.10;101203.00;5036166;28;20556;-81
2023/07/20 02:59:32;;;;;;;6.75;6.15;;;;;;;14.07;91.98;101208.00;5026524;28;20051;-81
2023/07/20 03:01:58;;;;;;;6.47;5.95;;;;;;;14.03;91.41;101212.16;5012693;28;20363;-82
2023/07/20 03:04:26;;;;;;;6.65;6.05;;;;;;;13.95;91.92;101217.78;5011670;28;20028;-81
2023/07/20 03:06:51;;;;;;;6.78;6.15;;;;;;;13.86;92.63;101227.19;5015768;28;20028;-81
2023/07/20 03:09:16;;;;;;;6.72;6.13;;;;;;;13.78;93.33;101220.13;5011365;28;20034;-81
2023/07/20 03:11:42;;;;;;;6.30;5.70;;;;;;;13.70;93.22;101218.47;5014797;28;20013;-81
2023/07/20 03:14:07;;;;;;;6.40;5.80;;;;;;;13.63;93.54;101223.88;5014300;28;20032;-81
2023/07/20 03:16:33;;;;;;;6.13;5.53;;;;;;;13.56;94.00;101219.50;5013779;28;20251;-81
2023/07/20 03:19:00;;;;;;;6.18;5.68;;;;;;;13.51;93.99;101224.69;5012768;28;20038;-81
2023/07/20 03:21:26;;;;;;;7.25;6.43;;;;;;;13.39;94.56;101222.59;5006593;28;20598;-82
2023/07/20 03:23:51;;;;;;;6.60;6.00;;;;;;;13.34;95.17;101230.47;4993369;28;20030;-81
2023/07/20 03:26:16;;;;;;;6.95;6.25;;;;;;;13.29;95.28;101227.56;5011002;28;20037;-81
2023/07/20 03:28:42;;;;;;;6.65;6.03;;;;;;;13.29;95.52;101228.41;5028815;28;20014;-81
2023/07/20 03:31:14;;;;;;;6.78;6.15;;;;;;;13.32;96.33;101232.56;5020981;28;20038;-82
2023/07/20 03:33:40;;;;;;;7.13;6.43;;;;;;;13.31;96.53;101230.88;5011756;28;20086;-81
2023/07/20 03:36:05;;;;;;;7.22;6.53;;;;;;;13.32;97.43;101227.13;5012698;28;20040;-81
2023/07/20 03:38:31;;;;;;;7.07;6.30;;;;;;;13.31;96.98;101237.13;5011738;28;20112;-81
2023/07/20 03:40:59;;;;;;;6.57;5.97;;;;;;;13.30;97.14;101224.66;5010646;28;20034;-81
2023/07/20 03:43:25;;;;;;;6.50;5.90;;;;;;;13.27;96.84;101240.44;5010951;28;20033;-81
2023/07/20 03:45:51;;;;;;;6.32;5.72;;;;;;;13.25;96.92;101232.53;4995170;28;20038;-81
2023/07/20 03:48:17;;;;;;;5.82;5.32;;;;;;;13.17;96.99;101233.56;5010200;28;20367;-81
2023/07/20 03:50:47;;;;;;;6.53;5.68;;;;;;;13.11;97.34;101238.97;5013778;28;20075;-82
2023/07/20 03:53:13;;;;;;;5.88;5.28;;;;;;;13.04;97.86;101238.94;5098455;22;20049;-82
2023/07/20 03:55:40;;;;;;;5.85;5.22;;;;;;;13.01;97.86;101247.47;5050002;28;20060;-81
2023/07/20 03:58:06;;;;;;;5.93;5.43;;;;;;;12.99;98.19;101249.53;5051870;28;20029;-81
2023/07/20 04:00:31;;;;;;;6.03;5.43;;;;;;;12.94;98.57;101243.91;5057665;28;20021;-82
2023/07/20 04:02:57;;;;;;;6.00;5.38;;;;;;;12.88;98.97;101243.66;5037860;28;20029;-82
2023/07/20 04:05:24;;;;;;;5.82;5.32;;;;;;;12.83;98.85;101245.31;5058925;28;20389;-81
2023/07/20 04:07:51;;;;;;;5.97;5.20;;;;;;;12.82;99.27;101255.28;5055228;28;20032;-81
2023/07/20 04:10:16;;;;;;;5.70;5.20;;;;;;;12.81;99.24;101253.63;5051515;28;20473;-81
2023/07/20 04:12:42;;;;;;;5.43;4.95;;;;;;;12.83;99.19;101250.72;5054851;28;20021;-81
2023/07/20 04:15:08;;;;;;;5.85;5.35;;;;;;;12.89;99.46;101253.44;5050458;28;20030;-81
2023/07/20 04:17:33;;;;;;;5.35;4.85;;;;;;;12.98;99.53;101256.78;5049004;28;20468;-81
2023/07/20 04:19:59;;;;;;;5.35;4.85;;;;;;;13.07;99.10;101257.44;5051524;28;20025;-81
2023/07/20 04:22:24;;;;;;;5.68;5.18;;;;;;;13.17;99.07;101257.91;5055880;28;20040;-81
2023/07/20 04:24:50;;;;;;;4.75;4.38;;;;;;;13.32;98.45;101259.59;5050985;28;20041;-81
2023/07/20 04:27:15;;;;;;;4.40;4.03;;;;;;;13.44;96.97;101255.25;5051315;28;20029;-82
2023/07/20 04:29:40;;;;;;;4.47;4.07;;;;;;;13.53;96.18;101260.50;5050273;28;20048;-82
2023/07/20 04:32:06;;;;;;;5.00;4.60;;;;;;;13.62;95.57;101259.22;5053073;28;20029;-82
2023/07/20 04:34:32;;;;;;;4.72;4.32;;;;;;;13.71;94.76;101258.00;5055089;28;20037;-82
2023/07/20 04:36:57;;;;;;;4.68;4.20;;;;;;;13.85;94.65;101260.69;5047065;28;20096;-82
2023/07/20 04:39:22;;;;;;;4.93;4.43;;;;;;;13.93;94.41;101266.72;5054732;28;20029;-82
2023/07/20 04:42:03;;;;;;;4.63;4.22;;;;;;;13.96;93.47;101260.06;5054151;28;20083;-82
2023/07/20 04:44:31;;;;;;;4.68;4.15;;;;;;;14.07;93.42;101272.13;5050879;28;20396;-81
2023/07/20 04:46:56;;;;;;;4.65;4.25;;;;;;;14.18;92.35;101278.78;5049990;28;20033;-82
2023/07/20 04:49:21;;;;;;;5.10;4.70;;;;;;;14.26;91.83;101278.56;5057031;28;20024;-82
2023/07/20 04:51:47;;;;;;;8.18;4.97;;;;;;;14.29;91.25;101280.03;5052841;28;20017;-82
2023/07/20 04:54:13;;;;;;;4.93;4.53;;;;;;;14.30;90.51;101276.28;5060264;28;20032;-82
2023/07/20 04:56:39;;;;;;;4.97;4.47;;;;;;;14.23;90.34;101279.81;5053288;28;20132;-83
2023/07/20 04:59:04;;;;;;;5.05;4.65;;;;;;;14.28;91.05;101281.06;5054623;28;20028;-83
2023/07/20 05:01:31;;;;;;;5.07;4.60;;;;;;;14.13;90.89;101275.88;5058713;28;20032;-82
2023/07/20 05:03:56;;;;;;;5.43;4.93;;;;;;;14.19;91.88;101273.19;5055339;28;20025;-82
2023/07/20 05:06:22;;;;;;;5.00;4.50;;;;;;;14.32;90.90;101272.28;5054771;28;20025;-82
2023/07/20 05:08:47;;;;;;;4.30;4.00;;;;;;;14.56;90.68;101276.19;5053980;28;20028;-80
2023/07/20 05:11:13;;;;;;;4.45;4.05;;;;;;;14.75;89.40;101279.06;5053962;28;20538;-81
2023/07/20 05:13:38;;;;;;;4.38;3.97;;;;;;;14.83;88.43;101281.56;5055593;28;20025;-81
2023/07/20 05:16:05;;;;;;;4.05;3.75;;;;;;;14.86;88.00;101285.72;5054964;28;20034;-81
2023/07/20 05:18:40;;;;;;;4.53;4.13;;;;;;;14.70;87.60;101282.44;5053231;28;20048;-81
2023/07/20 05:21:08;;;;;;;4.47;4.03;;;;;;;14.68;88.65;101289.94;5055105;28;20102;-82
2023/07/20 05:23:56;;;;;;;4.28;3.97;;;;;;;14.77;88.53;101287.00;5053467;28;20481;-83
2023/07/20 05:26:34;;;;;;;4.32;4.03;;;;;;;14.82;88.06;101292.63;5052401;28;20132;-81
2023/07/20 05:28:59;;;;;;;5.25;4.00;;;;;;;14.95;87.72;101289.00;5055015;28;20086;-83
2023/07/20 05:31:26;;;;;;;4.78;4.05;;;;;;;15.01;86.80;101299.81;5044564;28;20029;-81
2023/07/20 05:33:51;;;;;;;4.63;4.22;;;;;;;15.14;86.51;101300.81;5053298;28;20028;-79
2023/07/20 05:36:16;;;;;;;4.60;4.20;;;;;;;15.30;86.04;101303.03;5053397;28;20414;-81
2023/07/20 05:38:42;;;;;;;4.55;4.15;;;;;;;15.41;85.23;101297.94;5055310;28;20021;-80
2023/07/20 05:41:10;;;;;;;4.32;3.92;;;;;;;15.73;84.08;101306.91;5041848;28;20074;-82
2023/07/20 05:43:35;;;;;;;4.22;3.92;;;;;;;15.97;83.21;101300.91;5045215;28;20048;-78
2023/07/20 05:46:01;;;;;;;4.13;3.83;;;;;;;16.27;80.07;101305.66;5049827;28;20039;-78
2023/07/20 05:48:26;;;;;;;4.47;4.07;;;;;;;16.14;80.93;101317.50;5064569;28;20222;-79
2023/07/20 05:50:52;;;;;;;4.18;3.55;;;;;;;16.35;78.53;101306.19;5063417;28;20017;-80
2023/07/20 05:53:17;;;;;;;5.68;3.92;;;;;;;16.67;79.56;101310.66;5069990;22;20088;-81
2023/07/20 05:55:42;;;;;;;3.75;3.45;;;;;;;17.68;76.48;101310.19;5052331;28;20041;-81
2023/07/20 05:58:08;;;;;;;3.88;3.55;;;;;;;18.67;69.34;101315.22;5060811;28;20110;-80
2023/07/20 06:00:33;;;;;;;3.28;3.05;;;;;;;19.33;68.18;101323.91;5050627;28;20025;-78
2023/07/20 06:02:58;;;;;;;3.05;2.85;;;;;;;19.32;65.81;101327.75;5061163;28;20515;-81
2023/07/20 06:05:24;;;;;;;4.20;3.58;;;;;;;18.83;67.06;101330.00;5066974;28;20094;-79
2023/07/20 06:07:50;;;;;;;3.35;3.00;;;;;;;18.53;66.73;101331.00;5069436;28;20044;-77
2023/07/20 06:10:16;;;;;;;4.97;3.40;;;;;;;18.19;68.82;101328.84;5055175;28;20025;-80
2023/07/20 06:12:41;;;;;;;3.72;3.30;;;;;;;18.05;70.04;101330.16;5070197;28;20546;-81
2023/07/20 06:15:23;;;;;;;4.07;3.78;;;;;;;18.46;68.65;101342.84;5069789;28;20505;-80
2023/07/20 06:17:49;;;;;;;3.50;3.13;;;;;;;18.72;66.33;101337.97;5053795;28;20029;-78
2023/07/20 06:20:14;;;;;;;3.72;3.30;;;;;;;18.80;66.81;101336.75;5074855;28;20028;-76
2023/07/20 06:22:39;;;;;;;3.60;3.30;;;;;;;18.75;65.96;101339.38;5070151;28;20055;-76
2023/07/20 06:25:14;;;;;;;3.90;3.60;;;;;;;18.29;66.69;101340.03;5080376;28;20059;-77
2023/07/20 06:27:40;;;;;;;3.72;3.20;;;;;;;18.63;66.91;101342.97;5077998;28;20365;-77
2023/07/20 06:30:06;;;;;;;3.80;3.30;;;;;;;19.27;64.48;101346.75;5055115;28;20036;-78
2023/07/20 06:32:31;;;;;;;3.53;3.28;;;;;;;20.03;62.99;101348.38;5037944;28;20028;-78
2023/07/20 06:34:59;;;;;;;2.95;2.75;;;;;;;21.21;58.51;101345.63;5049478;22;20037;-78
2023/07/20 06:37:24;;;;;;;3.45;3.15;;;;;;;21.99;56.48;101340.91;5050956;28;20033;-79
2023/07/20 06:39:50;;;;;;;3.50;2.70;;;;;;;23.45;50.72;101344.13;5058792;28;20411;-79
2023/07/20 06:42:16;;;;;;;3.20;2.60;;;;;;;24.05;50.41;101351.91;5067086;28;20629;-77
2023/07/20 06:44:41;;;;;;;2.75;2.50;;;;;;;24.18;47.78;101350.53;5062051;28;20064;-80
2023/07/20 06:47:07;;;;;;;3.17;2.50;;;;;;;24.36;47.15;101343.59;5065610;28;20017;-80
2023/07/20 06:49:32;;;;;;;2.83;2.47;;;;;;;25.12;46.22;101351.88;5058471;28;20036;-79
2023/07/20 06:51:58;;;;;;;2.45;2.15;;;;;;;25.22;47.85;101345.50;5070815;22;20040;-80
2023/07/20 06:54:24;;;;;;;2.30;2.10;;;;;;;26.40;42.81;101353.97;5067119;28;20020;-79
2023/07/20 06:56:49;;;;;;;3.20;2.17;;;;;;;26.74;41.04;101348.34;5069217;28;20075;-80
2023/07/20 06:59:15;;;;;;;2.53;2.38;;;;;;;25.82;44.47;101339.84;5070361;28;20016;-80
2023/07/20 07:01:40;;;;;;;2.10;1.92;;;;;;;26.15;42.45;101348.41;5060552;28;20385;-80
2023/07/20 07:04:06;;;;;;;2.40;2.20;;;;;;;26.69;41.28;101340.09;5067193;28;20516;-79
2023/07/20 07:06:36;;;;;;;2.60;2.30;;;;;;;27.26;39.70;101342.16;5070318;28;20103;-81
2023/07/20 07:09:02;;;;;;;2.13;1.95;;;;;;;25.86;42.04;101351.13;5050308;28;20028;-79
2023/07/20 07:11:27;;;;;;;1.70;1.60;;;;;;;26.46;39.21;101345.34;5070180;28;20115;-88
2023/07/20 07:13:53;;;;;;;3.45;1.60;;;;;;;26.57;39.75;101345.22;5062048;28;20028;-82
2023/07/20 07:16:19;;;;;;;2.05;1.60;;;;;;;25.52;41.38;101347.25;5068612;28;20025;-83
2023/07/20 07:18:47;;;;;;;1.98;1.63;;;;;;;25.45;42.40;101345.94;5068844;28;20024;-79
2023/07/20 07:21:14;;;;;;;2.85;1.95;;;;;;;25.45;40.96;101352.25;5080263;28;20051;-74
2023/07/20 07:23:39;;;;;;;1.92;1.70;;;;;;;25.36;41.68;101349.25;5069175;28;20028;-79
2023/07/20 07:26:05;;;;;;;1.88;1.60;;;;;;;24.73;41.67;101353.44;5069979;28;20024;-75
2023/07/20 07:28:42;;;;;;;1.33;1.23;;;;;;;26.30;40.06;101354.88;5049405;28;20055;-84
2023/07/20 07:31:08;;;;;;;2.33;1.30;;;;;;;26.71;37.72;101350.88;5066382;28;20028;-78
2023/07/20 07:33:34;;;;;;;3.30;1.40;;;;;;;26.35;37.64;101362.31;5034101;28;20024;-78
2023/07/20 07:36:00;;;;;;;2.28;1.30;;;;;;;24.91;41.16;101365.75;5069664;28;20028;-78
2023/07/20 07:38:25;;;;;;;3.47;1.42;;;;;;;24.26;42.22;101368.38;5069915;28;20029;-77
2023/07/20 07:40:50;;;;;;;3.97;1.55;;;;;;;23.16;44.33;101363.81;5071215;28;20039;-77
2023/07/20 07:43:16;;;;;;;1.55;1.40;;;;;;;22.75;45.38;101366.38;5069485;28;20046;-77
2023/07/20 07:45:42;;;;;;;1.33;1.20;;;;;;;22.52;45.96;101372.03;5067593;28;20617;-77
2023/07/20 07:48:08;;;;;;;1.30;1.20;;;;;;;22.13;46.73;101372.28;5067775;28;20070;-77
2023/07/20 07:50:33;;;;;;;2.97;1.33;;;;;;;22.13;46.43;101372.28;5068936;28;20025;-77
2023/07/20 07:52:59;;;;;;;1.42;1.10;;;;;;;22.58;46.33;101372.06;5067062;28;20109;-77
2023/07/20 07:55:26;;;;;;;1.30;1.20;;;;;;;23.96;43.44;101373.59;5069336;28;20032;-77
2023/07/20 07:57:51;;;;;;;1.10;0.95;;;;;;;25.14;39.40;101388.25;5070157;28;20426;-77
2023/07/20 08:00:18;;;;;;;1.83;1.10;;;;;;;26.11;37.11;101376.84;5068071;28;20029;-77
2023/07/20 08:02:44;;;;;;;0.80;0.80;;;;;;;26.78;35.91;101379.78;5068799;28;20025;-77
2023/07/20 08:05:10;;;;;;;1.95;1.17;;;;;;;25.69;37.64;101388.22;5070528;28;20106;-78
2023/07/20 08:07:36;;;;;;;1.80;1.00;;;;;;;24.77;39.35;101394.97;5074179;28;20047;-77
2023/07/20 08:10:01;;;;;;;1.20;1.10;;;;;;;25.19;38.32;101393.72;5084175;28;20041;-77
2023/07/20 08:12:27;;;;;;;1.13;0.90;;;;;;;25.86;36.78;101384.22;5071420;28;20073;-78
2023/07/20 08:14:52;;;;;;;1.83;0.80;;;;;;;27.37;34.16;101390.63;5072622;28;20073;-77
2023/07/20 08:17:18;;;;;;;1.25;0.90;;;;;;;28.99;31.18;101400.66;5056334;28;20476;-78
2023/07/20 08:19:44;;;;;;;2.85;1.00;;;;;;;28.55;31.57;101395.41;5065580;28;20475;-78
2023/07/20 08:22:09;;;;;;;1.15;0.88;;;;;;;27.54;33.87;101392.09;5069433;28;20060;-78
2023/07/20 08:24:39;;;;;;;1.27;0.85;;;;;;;26.94;34.56;101393.44;5072685;28;20020;-78
2023/07/20 08:27:04;;;;;;;0.98;0.90;;;;;;;25.47;37.12;101391.41;5072946;28;20404;-78
2023/07/20 08:29:30;;;;;;;1.17;0.82;;;;;;;25.60;37.77;101389.09;5072927;28;20020;-78
2023/07/20 08:31:55;;;;;;;0.95;0.80;;;;;;;25.61;36.95;101388.00;5071800;28;20039;-78
2023/07/20 08:34:20;;;;;;;1.38;0.80;;;;;;;26.91;35.00;101385.72;5072731;28;20361;-78
2023/07/20 08:36:46;;;;;;;1.63;0.90;;;;;;;25.05;36.06;101387.19;5069787;28;20430;-78
2023/07/20 08:39:11;;;;;;;0.80;0.80;;;;;;;24.31;36.36;101385.72;5074934;28;20029;-76
2023/07/20 08:41:37;;;;;;;0.90;0.90;;;;;;;22.99;39.64;101388.72;5073338;28;20469;-79
2023/07/20 08:44:02;;;;;;;1.85;0.93;;;;;;;24.67;36.96;101390.31;5041490;28;20110;-78
2023/07/20 08:46:28;;;;;;;1.45;0.85;;;;;;;26.33;33.31;101392.94;5082383;28;20072;-78
2023/07/20 08:48:53;;;;;;;1.00;0.75;;;;;;;28.27;31.12;101400.09;5057063;28;20133;-78
2023/07/20 08:51:21;;;;;;;1.35;0.90;;;;;;;28.68;29.52;101402.06;5037431;28;20532;-78
2023/07/20 08:53:48;;;;;;;2.67;0.90;;;;;;;27.15;29.59;101399.50;5054412;28;20047;-77
2023/07/20 08:56:13;;;;;;;1.08;0.88;;;;;;;28.46;29.23;101402.78;5071232;28;20162;-78
2023/07/20 08:58:45;;;;;;;1.42;0.75;;;;;;;29.78;27.48;101410.56;5060409;28;20064;-78
2023/07/20 09:01:11;;;;;;;1.17;0.80;;;;;;;29.46;27.91;101400.50;5039545;28;20080;-78
2023/07/20 09:03:39;;;;;;;1.05;0.82;;;;;;;30.00;28.27;101406.19;5079073;28;20033;-78
2023/07/20 09:06:05;;;;;;;0.75;0.75;;;;;;;31.21;26.31;101402.63;5063773;28;20043;-78
2023/07/20 09:08:37;;;;;;;1.38;0.90;;;;;;;30.35;26.20;101406.41;5071395;28;20028;-78
2023/07/20 09:11:03;;;;;;;0.80;0.75;;;;;;;30.83;25.63;101392.88;5072330;28;20507;-78
2023/07/20 09:13:31;;;;;;;0.43;0.43;;;;;;;29.84;26.40;101396.53;5076531;28;20029;-78
2023/07/20 09:15:57;;;;;;;1.83;0.80;;;;;;;29.69;27.01;101406.09;5070278;28;20028;-78
2023/07/20 09:18:28;;;;;;;0.80;0.80;;;;;;;28.26;27.98;101390.13;5035885;28;20071;-78
2023/07/20 09:21:03;;;;;;;2.28;0.75;;;;;;;28.11;28.73;101388.44;5070316;28;20078;-78
2023/07/20 09:23:36;;;;;;;2.38;0.80;;;;;;;29.35;27.40;101397.13;5066084;28;20044;-78
2023/07/20 09:26:15;;;;;;;1.08;0.70;;;;;;;29.78;26.29;101393.09;5073922;28;20041;-78
2023/07/20 09:28:55;;;;;;;1.08;0.60;;;;;;;32.02;23.20;101389.19;5076651;28;20101;-78
2023/07/20 09:31:21;;;;;;;1.08;0.65;;;;;;;30.11;26.35;101390.06;5073107;28;20036;-78
2023/07/20 09:33:47;;;;;;;1.17;0.80;;;;;;;31.50;24.77;101388.09;5073891;28;20028;-80
2023/07/20 09:36:15;;;;;;;1.27;0.60;;;;;;;31.55;24.59;101396.28;5079959;28;20044;-80
2023/07/20 09:38:43;;;;;;;1.20;0.68;;;;;;;31.26;25.11;101388.56;5083515;28;20024;-80
2023/07/20 09:41:13;;;;;;;2.42;0.52;;;;;;;29.61;25.87;101393.78;5080047;28;20033;-79
2023/07/20 09:43:39;;;;;;;0.70;0.65;;;;;;;29.12;26.54;101388.75;5072109;28;20033;-79
2023/07/20 09:46:05;;;;;;;1.63;0.70;;;;;;;27.95;27.89;101388.69;5070937;28;20166;-79
2023/07/20 09:48:34;;;;;;;1.02;0.80;;;;;;;29.25;26.98;101391.81;5053167;28;20136;-79
2023/07/20 09:51:00;;;;;;;0.88;0.60;;;;;;;28.42;27.67;101393.44;5069028;28;20032;-78
2023/07/20 09:53:26;;;;;;;1.30;0.75;;;;;;;29.68;25.21;101396.13;5036890;28;20607;-79
2023/07/20 09:55:52;;;;;;;0.60;0.60;;;;;;;30.85;23.20;101396.97;5071681;28;20044;-77
2023/07/20 09:58:18;;;;;;;1.30;0.80;;;;;;;29.23;25.43;101389.31;5071776;28;20514;-78
2023/07/20 10:00:51;;;;;;;0.60;0.60;;;;;;;28.82;25.62;101388.25;5069645;28;20119;-79
2023/07/20 10:03:18;;;;;;;1.67;0.70;;;;;;;30.24;24.71;101382.78;5070025;28;20067;-78
2023/07/20 10:05:55;;;;;;;0.80;0.68;;;;;;;31.37;23.98;101383.50;5070412;28;20032;-78
2023/07/20 10:08:20;;;;;;;0.75;0.70;;;;;;;31.32;24.30;101375.31;5053956;28;20487;-77
2023/07/20 10:10:46;;;;;;;1.98;1.00;;;;;;;31.28;24.46;101375.16;5036870;28;20093;-76
2023/07/20 10:13:17;;;;;;;0.90;0.90;;;;;;;30.49;25.47;101377.69;5052095;28;20092;-78
2023/07/20 10:15:46;;;;;;;1.00;0.90;;;;;;;30.88;24.41;101364.09;5052669;28;20020;-78
2023/07/20 10:18:34;;;;;;;2.03;0.75;;;;;;;30.85;24.60;101371.13;5052508;28;20029;-79
2023/07/20 10:21:00;;;;;;;0.70;0.70;;;;;;;29.26;26.88;101371.25;5054189;28;20020;-79
2023/07/20 10:23:26;;;;;;;0.82;0.70;;;;;;;27.46;28.84;101362.38;5068464;28;20036;-79
2023/07/20 10:25:52;;;;;;;0.85;0.75;;;;;;;27.08;30.07;101372.25;5057062;28;20372;-78
2023/07/20 10:28:17;;;;;;;1.45;0.90;;;;;;;26.02;31.86;101371.97;5032729;28;20020;-78
2023/07/20 10:30:42;;;;;;;0.80;0.60;;;;;;;27.30;28.88;101365.31;5051507;28;20025;-79
2023/07/20 10:33:08;;;;;;;0.65;0.65;;;;;;;28.71;26.50;101372.94;5052694;28;20024;-79
2023/07/20 10:35:53;;;;;;;1.33;0.88;;;;;;;29.12;25.64;101366.56;5050218;28;20031;-77
2023/07/20 10:38:19;;;;;;;1.77;0.80;;;;;;;29.96;25.12;101366.31;5069563;28;20110;-78
2023/07/20 10:40:53;;;;;;;0.93;0.60;;;;;;;30.39;23.76;101374.03;5070487;28;20036;-78
2023/07/20 10:43:19;;;;;;;1.08;0.60;;;;;;;31.71;22.86;101359.63;5069596;28;20070;-77
2023/07/20 10:45:49;;;;;;;0.70;0.70;;;;;;;32.45;22.07;101366.00;5047413;28;20427;-77
2023/07/20 10:48:24;;;;;;;1.00;0.63;;;;;;;32.60;20.96;101358.22;5048418;28;20406;-78
2023/07/20 10:51:13;;;;;;;1.17;0.75;;;;;;;30.87;23.79;101348.56;5070632;28;20028;-77
2023/07/20 10:53:38;;;;;;;0.60;0.60;;;;;;;31.23;23.90;101342.75;5060707;28;20415;-77
2023/07/20 10:56:07;;;;;;;1.27;0.82;;;;;;;30.72;24.00;101338.72;5050607;28;20040;-77
2023/07/20 10:58:33;;;;;;;0.88;0.70;;;;;;;29.86;25.88;101338.78;5069719;28;20496;-77
2023/07/20 11:01:03;;;;;;;0.98;0.60;;;;;;;30.03;25.27;101343.66;5051041;28;20031;-78
2023/07/20 11:03:38;;;;;;;1.70;0.90;;;;;;;29.10;25.67;101334.72;5050452;28;20075;-78
2023/07/20 11:06:25;;;;;;;0.65;0.65;;;;;;;30.35;24.56;101341.66;5069573;28;20048;-78
2023/07/20 11:09:10;;;;;;;0.68;0.60;;;;;;;30.40;23.59;101333.22;5061972;28;20042;-78
2023/07/20 11:11:37;;;;;;;0.70;0.70;;;;;;;31.06;24.09;101334.38;5070153;28;20035;-78
2023/07/20 11:14:10;;;;;;;2.92;0.70;;;;;;;29.15;24.59;101332.66;5064169;28;20062;-77
2023/07/20 11:16:46;;;;;;;1.40;0.70;;;;;;;28.55;25.82;101328.94;5067064;28;20041;-77
2023/07/20 11:19:24;;;;;;;1.38;0.90;;;;;;;29.04;24.49;101331.25;5069400;28;20059;-77
2023/07/20 11:21:51;;;;;;;1.63;0.70;;;;;;;28.76;25.23;101323.00;5067809;28;20106;-77
2023/07/20 11:24:16;;;;;;;1.17;0.80;;;;;;;29.86;23.36;101322.94;5068111;28;20104;-77